Allen Springs, Kentucky
Current Conditions -  °F | °C
As of 8:53 PM on Monday 20 Oct 2014 (Local Time) from KBWG Reporting Station
Few Clouds Few Clouds  
Wind Chill: 59°   Ceiling: Unl
Heat Index: 59°   Visibility: 10mi
Dew Point: 50°   Wind: 5mph
Humidity: 72%   Direction: 220°SW
Pressure: 29.98"   Gusts: NA
Location:  36.8592°N, 86.3531°W
Report Text: KBWG 210153Z AUTO 22004KT 10SM FEW065 15/10 A2998 RMK AO2 SLP151 T01500100
Loading
Personal Weather Stations






























Interactive Weather Map New forecast layout! Learn more

10-Day Weather Forecast

Advertisements
Track Severe Weather on mobile